Time;durP1;ratioP1;P1;durP2;ratioP2;P2;SDS_P1;SDS_P2;PMS_P1;PMS_P2;Temp;Humidity;BMP_temperature;BMP_pressure;BME280_temperature;BME280_humidity;BME280_pressure;Samples;Min_cycle;Max_cycle;Signal;HPM_P1;HPM_P2
2024/01/27 00:00:35;;;;;;;16.55;2.10;;;4.60;99.90;;;;;;5008529;28;20046;-63
2024/01/27 00:03:00;;;;;;;12.57;2.28;;;4.60;99.90;;;;;;5007529;28;20504;-63
2024/01/27 00:05:26;;;;;;;13.57;1.77;;;4.50;99.90;;;;;;5012385;28;20112;-63
2024/01/27 00:07:51;;;;;;;13.05;2.15;;;4.40;99.90;;;;;;5009537;28;20071;-63
2024/01/27 00:10:17;;;;;;;15.00;1.98;;;4.50;99.90;;;;;;5012069;28;20080;-63
2024/01/27 00:12:42;;;;;;;16.13;2.17;;;4.60;99.90;;;;;;5006022;28;20029;-63
2024/01/27 00:15:08;;;;;;;10.15;2.25;;;4.60;99.90;;;;;;5015673;28;20619;-63
2024/01/27 00:17:35;;;;;;;16.67;2.70;;;4.70;99.90;;;;;;5015501;28;20028;-63
2024/01/27 00:20:01;;;;;;;14.63;2.28;;;4.70;99.90;;;;;;5017276;28;20257;-63
2024/01/27 00:22:26;;;;;;;20.08;3.35;;;4.70;99.90;;;;;;5015978;28;20091;-63
2024/01/27 00:24:52;;;;;;;13.98;1.90;;;4.70;99.90;;;;;;5014641;28;20033;-63
2024/01/27 00:27:17;;;;;;;18.13;3.33;;;4.70;99.90;;;;;;5006685;28;20018;-63
2024/01/27 00:29:43;;;;;;;12.95;3.08;;;4.80;99.90;;;;;;5017553;28;20043;-63
2024/01/27 00:32:08;;;;;;;25.10;4.30;;;4.70;99.90;;;;;;5014674;28;20501;-63
2024/01/27 00:34:34;;;;;;;19.85;2.83;;;4.70;99.90;;;;;;5011273;28;20419;-63
2024/01/27 00:36:59;;;;;;;12.90;2.55;;;4.70;99.90;;;;;;5006553;28;20108;-63
2024/01/27 00:39:25;;;;;;;14.90;2.47;;;4.70;99.90;;;;;;5011078;28;20405;-63
2024/01/27 00:41:52;;;;;;;16.77;3.17;;;4.80;99.90;;;;;;5009402;28;20022;-63
2024/01/27 00:44:18;;;;;;;12.60;2.92;;;4.80;99.90;;;;;;5015288;28;20024;-63
2024/01/27 00:46:44;;;;;;;13.68;2.92;;;4.80;99.90;;;;;;5011418;28;20120;-63
2024/01/27 00:49:09;;;;;;;18.25;3.33;;;4.70;99.90;;;;;;5014288;28;20128;-63
2024/01/27 00:51:34;;;;;;;18.23;2.78;;;4.70;99.90;;;;;;5010230;28;20096;-63
2024/01/27 00:54:00;;;;;;;13.88;2.50;;;4.60;99.90;;;;;;5016177;28;20606;-63
2024/01/27 00:56:25;;;;;;;13.23;2.40;;;4.60;99.90;;;;;;5015845;28;20034;-63
2024/01/27 00:58:51;;;;;;;25.25;2.95;;;4.50;99.90;;;;;;5021971;28;20061;-63
2024/01/27 01:01:16;;;;;;;17.55;2.97;;;4.50;99.90;;;;;;5001586;28;20053;-63
2024/01/27 01:03:42;;;;;;;11.77;2.45;;;4.40;99.90;;;;;;5022932;28;20025;-63
2024/01/27 01:06:07;;;;;;;15.73;3.28;;;4.30;99.90;;;;;;5018271;28;20029;-63
2024/01/27 01:08:33;;;;;;;22.27;3.08;;;4.30;99.90;;;;;;5022031;28;20028;-63
2024/01/27 01:10:58;;;;;;;22.23;3.58;;;4.30;99.90;;;;;;5018849;28;20033;-63
2024/01/27 01:13:24;;;;;;;19.25;2.85;;;4.20;99.90;;;;;;5018134;28;20037;-63
2024/01/27 01:15:49;;;;;;;14.82;2.90;;;4.20;99.90;;;;;;5011997;28;20033;-63
2024/01/27 01:18:15;;;;;;;18.63;3.13;;;4.20;99.90;;;;;;5015979;28;20056;-63
2024/01/27 01:20:40;;;;;;;20.02;3.00;;;4.20;99.90;;;;;;5006915;28;20029;-63
2024/01/27 01:23:06;;;;;;;13.60;2.17;;;4.20;99.90;;;;;;5009973;28;20099;-63
2024/01/27 01:25:32;;;;;;;14.45;2.95;;;4.30;99.90;;;;;;5000805;28;20049;-63
2024/01/27 01:27:57;;;;;;;14.02;1.80;;;4.30;99.90;;;;;;5009394;28;20440;-63
2024/01/27 01:30:22;;;;;;;17.55;2.45;;;4.30;99.90;;;;;;5008238;28;20025;-63
2024/01/27 01:32:48;;;;;;;12.38;2.47;;;4.30;99.90;;;;;;5006955;28;20026;-63
2024/01/27 01:35:14;;;;;;;10.55;2.20;;;4.30;99.90;;;;;;5010355;28;20041;-63
2024/01/27 01:37:39;;;;;;;13.02;2.13;;;4.30;99.80;;;;;;5010616;28;20025;-63
2024/01/27 01:40:05;;;;;;;19.95;4.05;;;4.20;99.90;;;;;;5011035;28;20030;-61
2024/01/27 01:42:32;;;;;;;27.02;4.05;;;4.20;99.90;;;;;;5017041;28;20033;-63
2024/01/27 01:44:58;;;;;;;18.10;2.67;;;4.20;99.90;;;;;;5021881;28;20529;-63
2024/01/27 01:47:24;;;;;;;12.50;2.83;;;4.30;99.90;;;;;;5017298;28;20164;-63
2024/01/27 01:49:50;;;;;;;15.30;2.03;;;4.30;99.80;;;;;;5020045;28;20022;-63
2024/01/27 01:52:20;;;;;;;18.50;2.65;;;4.30;99.80;;;;;;5012514;28;20026;-63
2024/01/27 01:54:50;;;;;;;16.17;2.63;;;4.40;99.70;;;;;;5024444;28;20075;-63
2024/01/27 01:57:16;;;;;;;16.40;2.80;;;4.50;99.40;;;;;;5012734;28;20152;-61
2024/01/27 01:59:41;;;;;;;15.57;2.42;;;4.40;99.40;;;;;;5016635;28;20171;-63
2024/01/27 02:02:08;;;;;;;15.48;1.98;;;4.40;99.40;;;;;;5009992;28;20105;-63
2024/01/27 02:04:45;;;;;;;16.63;2.20;;;4.40;99.40;;;;;;5015275;28;20025;-63
2024/01/27 02:07:11;;;;;;;16.45;3.47;;;4.40;99.40;;;;;;5013539;28;20596;-63
2024/01/27 02:09:37;;;;;;;15.43;2.88;;;4.40;99.20;;;;;;5011735;28;20030;-63
2024/01/27 02:12:03;;;;;;;16.77;2.63;;;4.40;99.30;;;;;;5008518;28;20033;-63
2024/01/27 02:14:28;;;;;;;16.05;2.25;;;4.50;98.90;;;;;;5015572;28;20736;-64
2024/01/27 02:16:54;;;;;;;14.13;2.17;;;4.50;98.90;;;;;;5012399;28;20148;-63
2024/01/27 02:19:20;;;;;;;13.93;2.53;;;4.60;98.80;;;;;;5007079;28;20529;-63
2024/01/27 02:21:45;;;;;;;15.70;2.92;;;4.60;98.60;;;;;;5010299;28;20037;-63
2024/01/27 02:24:11;;;;;;;17.65;2.35;;;4.60;98.20;;;;;;5007365;28;20036;-63
2024/01/27 02:26:37;;;;;;;18.65;2.78;;;4.60;98.10;;;;;;5009016;28;20033;-63
2024/01/27 02:29:02;;;;;;;21.98;3.15;;;4.60;98.20;;;;;;5017224;28;20444;-63
2024/01/27 02:31:28;;;;;;;18.52;2.92;;;4.60;97.90;;;;;;5019340;28;20099;-63
2024/01/27 02:33:54;;;;;;;20.13;3.33;;;4.60;97.60;;;;;;5010581;28;20302;-63
2024/01/27 02:36:19;;;;;;;27.13;3.70;;;4.50;97.70;;;;;;5012538;28;20482;-63
2024/01/27 02:38:45;;;;;;;13.13;2.13;;;4.50;97.80;;;;;;5005868;28;20052;-63
2024/01/27 02:41:11;;;;;;;17.08;2.63;;;4.40;97.80;;;;;;5008694;28;20064;-63
2024/01/27 02:43:37;;;;;;;17.17;3.42;;;4.30;97.80;;;;;;5009778;28;20029;-63
2024/01/27 02:46:03;;;;;;;17.15;3.17;;;4.30;98.00;;;;;;5007819;28;20026;-63
2024/01/27 02:48:29;;;;;;;13.52;2.25;;;4.20;98.30;;;;;;5011630;28;20057;-63
2024/01/27 02:50:54;;;;;;;18.52;2.95;;;4.30;98.50;;;;;;5010064;28;20033;-63
2024/01/27 02:53:20;;;;;;;18.33;2.88;;;4.30;98.70;;;;;;5010703;28;20033;-63
2024/01/27 02:55:45;;;;;;;23.20;3.00;;;4.30;98.70;;;;;;5012269;28;20045;-63
2024/01/27 02:58:11;;;;;;;19.67;2.42;;;4.20;98.90;;;;;;5009581;28;20092;-63
2024/01/27 03:00:37;;;;;;;16.98;2.83;;;4.30;99.00;;;;;;5007336;28;20073;-63
2024/01/27 03:03:02;;;;;;;19.02;2.88;;;4.20;99.00;;;;;;5004876;28;20546;-63
2024/01/27 03:05:28;;;;;;;20.27;4.07;;;4.20;99.20;;;;;;5006871;28;20025;-63
2024/01/27 03:07:53;;;;;;;23.38;3.03;;;4.20;99.50;;;;;;5014731;28;20075;-63
2024/01/27 03:10:19;;;;;;;16.05;3.03;;;4.20;99.60;;;;;;5014798;28;20025;-64
2024/01/27 03:12:44;;;;;;;9.95;2.28;;;4.30;99.70;;;;;;5008137;28;20021;-63
2024/01/27 03:15:10;;;;;;;27.60;3.08;;;4.30;99.80;;;;;;5013268;28;20068;-63
2024/01/27 03:17:35;;;;;;;28.02;3.42;;;4.50;99.80;;;;;;5015313;28;20029;-63
2024/01/27 03:20:01;;;;;;;13.90;3.03;;;4.50;99.70;;;;;;5012172;28;20022;-63
2024/01/27 03:22:27;;;;;;;20.10;3.80;;;4.60;99.50;;;;;;5007388;28;20046;-63
2024/01/27 03:24:55;;;;;;;16.08;2.92;;;4.60;99.60;;;;;;5011009;28;20112;-63
2024/01/27 03:27:20;;;;;;;11.90;2.65;;;4.70;99.60;;;;;;5014954;28;20029;-63
2024/01/27 03:29:46;;;;;;;13.68;2.45;;;4.70;99.30;;;;;;5009074;28;20642;-64
2024/01/27 03:32:11;;;;;;;20.58;3.05;;;4.70;99.50;;;;;;5005115;28;20032;-63
2024/01/27 03:34:43;;;;;;;10.80;2.50;;;4.70;99.60;;;;;;5010615;28;20076;-63
2024/01/27 03:37:09;;;;;;;17.88;2.67;;;4.70;99.50;;;;;;5010273;28;20122;-63
2024/01/27 03:39:34;;;;;;;15.18;2.42;;;4.70;99.80;;;;;;5009819;28;20112;-63
2024/01/27 03:42:00;;;;;;;17.98;3.25;;;4.80;99.70;;;;;;5009343;28;20106;-63
2024/01/27 03:44:25;;;;;;;20.27;2.85;;;4.80;99.80;;;;;;5006794;28;20124;-63
2024/01/27 03:46:51;;;;;;;25.88;3.70;;;4.80;99.90;;;;;;5007417;28;20075;-63
2024/01/27 03:49:16;;;;;;;15.27;2.55;;;4.80;99.90;;;;;;5011447;28;20018;-63
2024/01/27 03:51:42;;;;;;;17.80;2.20;;;4.90;99.80;;;;;;5017751;28;20021;-63
2024/01/27 03:54:08;;;;;;;13.98;2.63;;;4.90;99.80;;;;;;5011920;28;20524;-63
2024/01/27 03:56:33;;;;;;;16.52;2.72;;;4.90;99.90;;;;;;5005279;28;20038;-63
2024/01/27 03:58:59;;;;;;;15.57;2.10;;;4.90;99.50;;;;;;5008662;28;20037;-63
2024/01/27 04:01:24;;;;;;;19.55;2.83;;;4.90;99.60;;;;;;5003432;28;20100;-63
2024/01/27 04:03:49;;;;;;;19.33;3.67;;;4.90;99.70;;;;;;5020531;28;20037;-63
2024/01/27 04:06:15;;;;;;;23.80;5.10;;;4.90;99.70;;;;;;5013654;28;20554;-63
2024/01/27 04:08:43;;;;;;;11.60;3.08;;;4.90;99.30;;;;;;5011733;28;20029;-63
2024/01/27 04:11:10;;;;;;;14.13;3.03;;;4.90;99.20;;;;;;5015495;28;20052;-63
2024/01/27 04:13:36;;;;;;;13.88;2.38;;;4.90;99.10;;;;;;5011677;28;20033;-63
2024/01/27 04:16:01;;;;;;;19.73;4.00;;;5.00;99.30;;;;;;5014073;28;20025;-63
2024/01/27 04:18:27;;;;;;;19.60;3.00;;;4.90;99.50;;;;;;5005885;28;20046;-63
2024/01/27 04:20:52;;;;;;;11.27;2.42;;;5.00;99.40;;;;;;5019508;28;20044;-63
2024/01/27 04:23:18;;;;;;;13.35;3.08;;;4.90;99.60;;;;;;5021209;28;20033;-63
2024/01/27 04:25:43;;;;;;;15.13;3.22;;;5.00;99.70;;;;;;5019654;28;20068;-63
2024/01/27 04:28:11;;;;;;;21.20;2.60;;;4.90;99.80;;;;;;5019386;28;20025;-63
2024/01/27 04:30:37;;;;;;;17.85;2.83;;;4.90;99.90;;;;;;5019357;28;20021;-63
2024/01/27 04:33:03;;;;;;;13.82;2.40;;;4.90;99.90;;;;;;5019617;28;20401;-63
2024/01/27 04:35:29;;;;;;;21.75;3.08;;;5.00;99.90;;;;;;5014543;28;20037;-63
2024/01/27 04:37:54;;;;;;;21.08;2.45;;;5.00;99.90;;;;;;5011213;28;20379;-63
2024/01/27 04:40:20;;;;;;;8.85;1.92;;;5.00;99.90;;;;;;5017034;28;20084;-63
2024/01/27 04:42:45;;;;;;;22.45;2.58;;;5.00;99.80;;;;;;5014308;28;20034;-63
2024/01/27 04:45:14;;;;;;;15.40;2.63;;;5.00;99.90;;;;;;5019456;28;20037;-63
2024/01/27 04:47:40;;;;;;;16.38;2.63;;;4.90;99.90;;;;;;5011177;28;20025;-63
2024/01/27 04:50:06;;;;;;;15.23;2.22;;;4.90;99.90;;;;;;5006125;28;20034;-63
2024/01/27 04:52:31;;;;;;;9.82;2.70;;;4.90;99.90;;;;;;5007594;28;20037;-63
2024/01/27 04:54:58;;;;;;;10.85;2.72;;;5.00;99.90;;;;;;5009001;28;20038;-63
2024/01/27 04:57:23;;;;;;;18.90;2.75;;;4.90;99.90;;;;;;5012719;28;20029;-63
2024/01/27 04:59:49;;;;;;;15.95;3.50;;;4.90;99.90;;;;;;5006437;28;20469;-63
2024/01/27 05:02:14;;;;;;;15.40;2.38;;;4.90;99.90;;;;;;5003808;28;20038;-64
2024/01/27 05:04:40;;;;;;;20.35;3.45;;;4.90;99.90;;;;;;5018725;28;20398;-59
2024/01/27 05:07:05;;;;;;;15.82;2.85;;;4.90;99.90;;;;;;5005812;28;20489;-59
2024/01/27 05:09:31;;;;;;;13.32;2.22;;;4.90;99.90;;;;;;5008054;28;20592;-59
2024/01/27 05:11:56;;;;;;;11.07;2.08;;;4.90;99.90;;;;;;5011437;28;20040;-60
2024/01/27 05:14:22;;;;;;;12.48;3.35;;;4.90;99.90;;;;;;5006258;28;20085;-59
2024/01/27 05:16:47;;;;;;;17.83;2.72;;;4.90;99.90;;;;;;5012262;28;20117;-60
2024/01/27 05:19:13;;;;;;;15.38;3.35;;;4.90;99.90;;;;;;5011611;28;20379;-58
2024/01/27 05:21:38;;;;;;;17.48;3.47;;;4.90;99.90;;;;;;5019898;28;20021;-60
2024/01/27 05:24:04;;;;;;;16.90;2.22;;;4.90;99.90;;;;;;5006495;28;20148;-59
2024/01/27 05:26:30;;;;;;;17.00;2.88;;;4.80;99.90;;;;;;5011407;28;20037;-60
2024/01/27 05:28:55;;;;;;;11.95;2.42;;;4.80;99.90;;;;;;5009533;28;20025;-59
2024/01/27 05:31:21;;;;;;;20.30;2.63;;;4.80;99.90;;;;;;5009438;28;20111;-60
2024/01/27 05:33:46;;;;;;;13.27;2.75;;;4.80;99.90;;;;;;5016864;28;20030;-60
2024/01/27 05:36:12;;;;;;;14.57;3.30;;;4.80;99.90;;;;;;5006373;28;20113;-58
2024/01/27 05:38:37;;;;;;;24.05;3.45;;;4.70;99.90;;;;;;5012200;28;20029;-58
2024/01/27 05:41:03;;;;;;;14.68;2.33;;;4.70;99.90;;;;;;5011837;28;20512;-59
2024/01/27 05:43:29;;;;;;;19.90;3.60;;;4.70;99.90;;;;;;5012882;28;20041;-58
2024/01/27 05:45:55;;;;;;;19.65;3.15;;;4.70;99.90;;;;;;5012974;28;20064;-59
2024/01/27 05:48:21;;;;;;;19.10;2.65;;;4.70;99.90;;;;;;5017396;28;20029;-59
2024/01/27 05:51:00;;;;;;;16.30;2.42;;;4.70;99.90;;;;;;5010100;28;20436;-60
2024/01/27 05:53:26;;;;;;;13.95;2.47;;;4.70;99.90;;;;;;5019539;28;20025;-60
2024/01/27 05:55:53;;;;;;;13.75;2.80;;;4.70;99.90;;;;;;5015819;28;20501;-59
2024/01/27 05:58:21;;;;;;;21.85;3.22;;;4.70;99.90;;;;;;5021724;28;20061;-61
2024/01/27 06:00:46;;;;;;;21.05;3.00;;;4.60;99.90;;;;;;5023701;28;20044;-60
2024/01/27 06:03:12;;;;;;;14.52;2.67;;;4.60;99.90;;;;;;5006843;28;20398;-59
2024/01/27 06:05:38;;;;;;;14.35;2.75;;;4.60;99.90;;;;;;5016510;28;20030;-59
2024/01/27 06:08:05;;;;;;;13.02;2.50;;;4.60;99.90;;;;;;5017906;28;20044;-61
2024/01/27 06:10:31;;;;;;;15.10;2.22;;;4.60;99.90;;;;;;5014444;28;20081;-59
2024/01/27 06:12:57;;;;;;;16.40;2.78;;;4.60;99.90;;;;;;5018607;28;20029;-59
2024/01/27 06:15:22;;;;;;;15.10;2.60;;;4.60;99.90;;;;;;5017765;28;20026;-59
2024/01/27 06:17:48;;;;;;;11.00;2.42;;;4.60;99.90;;;;;;5018189;28;20033;-59
2024/01/27 06:20:13;;;;;;;17.25;2.53;;;4.60;99.90;;;;;;5008899;28;20030;-59
2024/01/27 06:22:39;;;;;;;23.30;4.72;;;4.60;99.90;;;;;;5015072;28;20441;-59
2024/01/27 06:25:04;;;;;;;15.27;3.05;;;4.60;99.90;;;;;;5010808;28;20646;-60
2024/01/27 06:27:30;;;;;;;14.07;2.50;;;4.60;99.90;;;;;;5009728;28;20034;-60
2024/01/27 06:29:56;;;;;;;13.23;2.30;;;4.60;99.90;;;;;;5006771;28;20040;-60
2024/01/27 06:32:22;;;;;;;22.58;3.22;;;4.60;99.90;;;;;;5010540;28;20577;-61
2024/01/27 06:34:47;;;;;;;19.10;2.88;;;4.60;99.90;;;;;;5013184;28;20033;-57
2024/01/27 06:37:13;;;;;;;19.23;2.30;;;4.60;99.90;;;;;;5015356;28;20624;-59
2024/01/27 06:39:38;;;;;;;14.63;2.35;;;4.60;99.90;;;;;;5010672;28;20076;-59
2024/01/27 06:42:04;;;;;;;19.65;2.78;;;4.60;99.90;;;;;;5021326;28;20057;-61
2024/01/27 06:44:29;;;;;;;17.20;3.38;;;4.60;99.90;;;;;;5008710;28;20470;-59
2024/01/27 06:46:55;;;;;;;12.05;2.25;;;4.70;99.90;;;;;;5022823;28;20021;-59
2024/01/27 06:49:20;;;;;;;13.98;2.50;;;4.70;99.90;;;;;;5018558;28;20038;-57
2024/01/27 06:51:46;;;;;;;16.38;2.72;;;4.70;99.90;;;;;;5020570;28;20036;-59
2024/01/27 06:54:11;;;;;;;24.02;3.25;;;4.70;99.90;;;;;;5015948;28;20052;-59
2024/01/27 06:56:37;;;;;;;21.45;3.10;;;4.80;99.90;;;;;;5012900;28;20593;-60
2024/01/27 06:59:02;;;;;;;25.70;4.35;;;4.80;99.90;;;;;;5021115;28;20022;-59
2024/01/27 07:01:28;;;;;;;29.88;4.72;;;4.80;99.90;;;;;;5012382;28;20046;-60
2024/01/27 07:03:53;;;;;;;12.95;4.03;;;4.90;99.90;;;;;;5012018;28;20021;-60
2024/01/27 07:06:19;;;;;;;16.17;3.17;;;4.90;99.90;;;;;;5012934;28;20235;-61
2024/01/27 07:08:44;;;;;;;16.30;2.80;;;4.90;99.90;;;;;;5016138;28;20034;-60
2024/01/27 07:11:10;;;;;;;8.57;2.10;;;5.00;99.90;;;;;;5016399;28;20064;-60
2024/01/27 07:13:35;;;;;;;14.50;2.85;;;5.00;99.90;;;;;;5011394;28;20386;-58
2024/01/27 07:16:01;;;;;;;21.80;3.55;;;5.00;99.90;;;;;;5020352;28;20517;-60
2024/01/27 07:18:27;;;;;;;17.17;2.15;;;5.00;99.90;;;;;;5015347;28;20444;-59
2024/01/27 07:20:52;;;;;;;13.80;2.22;;;5.00;99.90;;;;;;5015933;28;20029;-58
2024/01/27 07:23:18;;;;;;;18.80;2.95;;;5.10;99.90;;;;;;5015405;28;20732;-59
2024/01/27 07:25:43;;;;;;;13.57;2.28;;;5.10;99.90;;;;;;5013962;28;20033;-60
2024/01/27 07:28:09;;;;;;;7.40;2.22;;;5.10;99.90;;;;;;5012735;28;20477;-59
2024/01/27 07:30:36;;;;;;;13.77;2.25;;;5.20;99.90;;;;;;5014065;28;20025;-59
2024/01/27 07:33:01;;;;;;;22.52;3.33;;;5.20;99.90;;;;;;5014959;28;20029;-60
2024/01/27 07:35:27;;;;;;;21.23;2.70;;;5.20;99.90;;;;;;5012404;28;20601;-59
2024/01/27 07:37:52;;;;;;;17.40;3.45;;;5.30;99.90;;;;;;5012811;28;20087;-60
2024/01/27 07:40:18;;;;;;;23.58;3.75;;;5.30;99.90;;;;;;5009152;28;20025;-60
2024/01/27 07:42:43;;;;;;;24.15;3.10;;;5.40;99.90;;;;;;5012778;28;20041;-60
2024/01/27 07:45:09;;;;;;;15.43;2.67;;;5.40;99.90;;;;;;5009341;28;20039;-59
2024/01/27 07:47:34;;;;;;;15.85;2.97;;;5.50;99.90;;;;;;5012044;28;20135;-60
2024/01/27 07:50:00;;;;;;;12.25;2.53;;;5.50;99.90;;;;;;5011056;28;20064;-60
2024/01/27 07:52:25;;;;;;;13.77;2.47;;;5.60;99.90;;;;;;5006908;28;20034;-60
2024/01/27 07:54:51;;;;;;;19.83;3.08;;;5.70;99.90;;;;;;5009005;28;20057;-60
2024/01/27 07:57:16;;;;;;;16.55;2.95;;;5.70;99.90;;;;;;5017648;28;20280;-60
2024/01/27 07:59:51;;;;;;;22.48;5.03;;;5.70;99.90;;;;;;5088276;27;20409;-59
2024/01/27 08:02:17;;;;;;;18.40;2.72;;;5.80;99.90;;;;;;5076051;28;20391;-58
2024/01/27 08:04:42;;;;;;;15.85;2.88;;;5.80;99.90;;;;;;5079441;28;20075;-59
2024/01/27 08:07:09;;;;;;;16.35;2.45;;;5.80;99.90;;;;;;5064865;28;20021;-59
2024/01/27 08:09:35;;;;;;;15.95;2.55;;;5.90;99.90;;;;;;5079091;28;20199;-58
2024/01/27 08:12:01;;;;;;;18.13;2.40;;;5.90;99.90;;;;;;5081943;28;20028;-59
2024/01/27 08:14:30;;;;;;;18.33;3.28;;;6.00;99.90;;;;;;5078222;28;20032;-59
2024/01/27 08:16:56;;;;;;;12.90;3.03;;;6.00;99.90;;;;;;5080549;28;20029;-59
2024/01/27 08:19:23;;;;;;;17.88;3.05;;;6.10;99.90;;;;;;5074754;28;20067;-58
2024/01/27 08:21:49;;;;;;;19.13;2.97;;;6.20;99.90;;;;;;5078978;28;20064;-59
2024/01/27 08:24:14;;;;;;;14.60;2.90;;;6.20;99.90;;;;;;5079629;28;20579;-60
2024/01/27 08:26:42;;;;;;;21.40;3.60;;;6.20;99.90;;;;;;5074915;28;20035;-59
2024/01/27 08:29:10;;;;;;;20.73;3.80;;;6.20;99.90;;;;;;5076218;28;20016;-59
2024/01/27 08:31:37;;;;;;;24.17;2.85;;;6.30;99.90;;;;;;5079305;28;20454;-59
2024/01/27 08:34:03;;;;;;;20.83;3.50;;;6.30;99.90;;;;;;5073899;28;20016;-59
2024/01/27 08:36:28;;;;;;;13.13;2.65;;;6.40;99.90;;;;;;5078688;28;20043;-60
2024/01/27 08:38:54;;;;;;;20.40;3.25;;;6.40;99.90;;;;;;5078654;28;20046;-59
2024/01/27 08:41:20;;;;;;;22.13;3.85;;;6.30;99.90;;;;;;5083733;28;20631;-59
2024/01/27 08:43:45;;;;;;;17.77;3.53;;;6.40;99.90;;;;;;5066580;28;20033;-60
2024/01/27 08:46:13;;;;;;;15.38;2.60;;;6.50;99.90;;;;;;5077517;28;20040;-59
2024/01/27 08:48:40;;;;;;;13.98;2.97;;;6.50;99.90;;;;;;5079315;28;20448;-59
2024/01/27 08:51:07;;;;;;;11.50;2.67;;;6.60;99.90;;;;;;5076115;28;20035;-58
2024/01/27 08:53:33;;;;;;;14.75;3.00;;;6.70;99.90;;;;;;5076283;28;20031;-58
2024/01/27 08:55:58;;;;;;;17.77;2.40;;;6.90;99.90;;;;;;5074770;28;20028;-59
2024/01/27 08:58:24;;;;;;;13.32;2.88;;;7.00;99.90;;;;;;5076145;28;20076;-59
2024/01/27 09:00:49;;;;;;;10.18;2.53;;;7.10;99.80;;;;;;5085284;28;20461;-59
2024/01/27 09:03:16;;;;;;;11.75;2.55;;;7.10;99.90;;;;;;5071469;28;20032;-60
2024/01/27 09:05:43;;;;;;;13.77;3.03;;;7.10;99.10;;;;;;5078729;28;20488;-60
2024/01/27 09:08:09;;;;;;;15.18;2.88;;;7.20;98.90;;;;;;5076008;28;20020;-59
2024/01/27 09:10:34;;;;;;;19.38;3.28;;;7.10;98.50;;;;;;5065808;28;20030;-60
2024/01/27 09:13:00;;;;;;;18.23;3.20;;;7.20;98.80;;;;;;5067378;28;20430;-58
2024/01/27 09:15:25;;;;;;;17.25;3.78;;;7.30;98.10;;;;;;5065061;28;20115;-58
2024/01/27 09:17:51;;;;;;;18.38;3.35;;;7.40;98.30;;;;;;5064968;28;20082;-58
2024/01/27 09:20:16;;;;;;;21.58;3.70;;;7.50;97.90;;;;;;5066425;28;20036;-57
2024/01/27 09:22:42;;;;;;;16.40;2.90;;;7.50;97.30;;;;;;5065236;28;20024;-58
2024/01/27 09:25:08;;;;;;;10.80;2.88;;;7.50;96.90;;;;;;5063184;28;20028;-58
2024/01/27 09:27:34;;;;;;;18.08;3.10;;;7.50;96.10;;;;;;5068942;28;20031;-58
2024/01/27 09:29:59;;;;;;;12.13;3.42;;;7.70;95.50;;;;;;5061981;28;20028;-59
2024/01/27 09:32:25;;;;;;;17.38;3.72;;;7.70;95.80;;;;;;5062176;28;20060;-58
2024/01/27 09:34:53;;;;;;;16.40;2.40;;;7.80;95.90;;;;;;5062062;28;20076;-58
2024/01/27 09:37:19;;;;;;;12.05;2.90;;;7.80;95.40;;;;;;5065851;28;20020;-57
2024/01/27 09:39:44;;;;;;;14.95;2.63;;;7.90;95.70;;;;;;5063533;28;20050;-59
2024/01/27 09:42:16;;;;;;;16.02;2.97;;;7.90;95.10;;;;;;5064189;28;20029;-59
2024/01/27 09:44:44;;;;;;;12.57;2.85;;;7.90;94.50;;;;;;5054851;28;20495;-60
2024/01/27 09:47:12;;;;;;;13.25;3.05;;;7.90;94.80;;;;;;5066007;28;20028;-60
2024/01/27 09:49:41;;;;;;;14.38;2.47;;;8.00;95.20;;;;;;5064656;28;20520;-61
2024/01/27 09:52:07;;;;;;;13.90;3.22;;;8.00;94.30;;;;;;5066773;28;20025;-60
2024/01/27 09:54:32;;;;;;;14.90;3.10;;;8.00;93.70;;;;;;5065763;28;20024;-60
2024/01/27 09:56:58;;;;;;;20.50;2.70;;;8.00;93.80;;;;;;5068217;28;20652;-60
2024/01/27 09:59:25;;;;;;;14.23;2.83;;;8.00;93.90;;;;;;5062328;28;20151;-60
2024/01/27 10:01:51;;;;;;;17.75;3.00;;;8.10;93.30;;;;;;5058112;28;20024;-60
2024/01/27 10:04:19;;;;;;;13.95;2.58;;;8.10;93.40;;;;;;5058265;28;20099;-58
2024/01/27 10:06:45;;;;;;;14.23;3.17;;;8.20;93.60;;;;;;5058426;28;20036;-59
2024/01/27 10:09:10;;;;;;;17.95;3.17;;;8.20;93.20;;;;;;5060442;28;20028;-59
2024/01/27 10:11:40;;;;;;;16.02;2.85;;;8.20;93.10;;;;;;5059708;28;20106;-59
2024/01/27 10:14:05;;;;;;;16.55;3.25;;;8.20;92.70;;;;;;5063157;28;20085;-59
2024/01/27 10:16:43;;;;;;;13.02;2.67;;;8.30;93.20;;;;;;5066132;28;20111;-59
2024/01/27 10:19:19;;;;;;;9.32;3.05;;;8.30;92.50;;;;;;5058026;28;20060;-59
2024/01/27 10:21:48;;;;;;;9.25;2.25;;;8.20;92.70;;;;;;5057374;28;20503;-59
2024/01/27 10:24:14;;;;;;;15.00;2.92;;;8.20;92.60;;;;;;5058132;28;20044;-59
2024/01/27 10:26:39;;;;;;;16.58;3.20;;;8.20;92.80;;;;;;5059984;28;20445;-59
2024/01/27 10:29:05;;;;;;;7.97;2.50;;;8.20;92.30;;;;;;5063979;28;20025;-59
2024/01/27 10:31:33;;;;;;;14.80;2.20;;;8.20;92.50;;;;;;5063971;28;20025;-58
2024/01/27 10:34:01;;;;;;;16.30;3.00;;;8.20;92.10;;;;;;5059265;28;20015;-59
2024/01/27 10:36:27;;;;;;;13.15;2.42;;;8.10;92.20;;;;;;5062541;28;20036;-59
2024/01/27 10:38:52;;;;;;;16.17;3.72;;;8.20;92.20;;;;;;5063238;28;20085;-59
2024/01/27 10:41:25;;;;;;;19.50;3.05;;;8.10;92.20;;;;;;5065628;28;20465;-58
2024/01/27 10:43:52;;;;;;;15.30;2.90;;;8.20;91.90;;;;;;5067339;28;20107;-59
2024/01/27 10:46:22;;;;;;;16.45;3.55;;;8.20;91.70;;;;;;5061123;28;20020;-59
2024/01/27 10:48:55;;;;;;;17.13;3.67;;;8.20;91.70;;;;;;5063599;28;20111;-59
2024/01/27 10:51:30;;;;;;;14.55;3.22;;;8.30;91.60;;;;;;5063465;28;20032;-59
2024/01/27 10:54:02;;;;;;;12.63;2.78;;;8.40;91.30;;;;;;5061846;28;20389;-59
2024/01/27 10:56:31;;;;;;;16.70;3.45;;;8.50;91.10;;;;;;5059514;28;20476;-59
2024/01/27 10:58:58;;;;;;;12.52;3.05;;;8.60;91.30;;;;;;5055550;28;20144;-59
2024/01/27 11:01:24;;;;;;;10.38;2.95;;;8.60;91.00;;;;;;5059624;28;20042;-59
2024/01/27 11:03:54;;;;;;;10.32;3.40;;;8.60;90.30;;;;;;5064129;28;20041;-59
2024/01/27 11:06:22;;;;;;;21.15;2.58;;;8.50;90.50;;;;;;5062656;28;20931;-62
2024/01/27 11:08:50;;;;;;;12.85;3.28;;;8.50;90.00;;;;;;5062033;28;20043;-59
2024/01/27 11:11:16;;;;;;;10.02;2.58;;;8.50;90.10;;;;;;5062988;28;20013;-59
2024/01/27 11:13:42;;;;;;;12.35;2.63;;;8.50;90.50;;;;;;5064005;28;20110;-59
2024/01/27 11:16:17;;;;;;;8.52;2.63;;;8.50;90.50;;;;;;5061168;28;20123;-59
2024/01/27 11:18:43;;;;;;;12.10;2.35;;;8.50;89.80;;;;;;5063432;28;20064;-59
2024/01/27 11:21:15;;;;;;;6.88;2.28;;;8.50;90.00;;;;;;5062727;28;20059;-59
2024/01/27 11:23:42;;;;;;;22.80;4.25;;;8.60;89.90;;;;;;5058352;28;20455;-59
2024/01/27 11:26:09;;;;;;;11.55;2.35;;;8.60;89.90;;;;;;5064051;28;20028;-59
2024/01/27 11:28:35;;;;;;;18.00;2.83;;;8.60;89.00;;;;;;5062567;28;20020;-59
2024/01/27 11:31:08;;;;;;;9.57;1.98;;;8.60;88.70;;;;;;5063948;28;20488;-59
2024/01/27 11:33:42;;;;;;;9.82;1.70;;;8.60;88.20;;;;;;5059718;28;20032;-59
2024/01/27 11:36:07;;;;;;;14.65;2.53;;;8.60;88.30;;;;;;5061604;28;20044;-59
2024/01/27 11:38:33;;;;;;;17.02;2.95;;;8.60;88.70;;;;;;5060449;28;20039;-59
2024/01/27 11:41:02;;;;;;;12.55;2.83;;;8.60;88.70;;;;;;5060961;28;20415;-59
2024/01/27 11:43:28;;;;;;;16.77;3.22;;;8.60;87.80;;;;;;5058762;28;20111;-59
2024/01/27 11:45:58;;;;;;;12.65;2.22;;;8.60;87.70;;;;;;5061292;28;20111;-59
2024/01/27 11:48:23;;;;;;;11.65;2.35;;;8.60;87.80;;;;;;5039091;28;20044;-59
2024/01/27 11:50:59;;;;;;;13.80;2.60;;;8.60;86.70;;;;;;5057598;28;20036;-59
2024/01/27 11:53:25;;;;;;;;;;;8.50;87.10;;;;;;5059655;28;20060;-59
2024/01/27 11:55:57;;;;;;;10.53;1.97;;;8.50;86.20;;;;;;5064360;28;20012;-59
2024/01/27 11:58:22;;;;;;;8.43;2.08;;;8.60;87.90;;;;;;5058324;28;20044;-59
2024/01/27 12:00:48;;;;;;;10.27;2.53;;;8.70;87.80;;;;;;5063553;28;20044;-59
2024/01/27 12:03:13;;;;;;;16.83;2.72;;;8.70;87.60;;;;;;5057907;28;20668;-59
2024/01/27 12:05:39;;;;;;;17.65;3.13;;;8.70;87.50;;;;;;5060056;28;20032;-59
2024/01/27 12:08:07;;;;;;;13.10;3.90;;;8.60;87.00;;;;;;5061422;28;20021;-59
2024/01/27 12:10:33;;;;;;;10.57;2.33;;;8.70;86.70;;;;;;5062160;28;20023;-59
2024/01/27 12:12:59;;;;;;;11.68;2.83;;;8.70;86.10;;;;;;5064033;28;20024;-59
2024/01/27 12:15:26;;;;;;;15.13;2.80;;;8.60;86.40;;;;;;5060193;28;20317;-59
2024/01/27 12:17:54;;;;;;;15.23;2.83;;;8.60;85.70;;;;;;5059871;28;20343;-59
2024/01/27 12:20:22;;;;;;;16.63;3.50;;;8.60;86.90;;;;;;5043812;28;20028;-59
2024/01/27 12:22:50;;;;;;;14.25;2.40;;;8.60;86.30;;;;;;5061086;28;20028;-59
2024/01/27 12:25:17;;;;;;;12.60;3.58;;;8.60;86.30;;;;;;5057798;28;20035;-59
2024/01/27 12:27:43;;;;;;;10.93;2.63;;;8.60;85.80;;;;;;5057588;28;20083;-59
2024/01/27 12:30:10;;;;;;;13.40;2.67;;;8.60;86.10;;;;;;5061468;28;20032;-59
2024/01/27 12:32:36;;;;;;;8.38;1.83;;;8.60;85.80;;;;;;5060012;28;20099;-58
2024/01/27 12:35:08;;;;;;;10.02;2.67;;;8.60;85.20;;;;;;5058745;28;20103;-58
2024/01/27 12:37:35;;;;;;;10.27;2.22;;;8.50;85.70;;;;;;5051867;28;20024;-59
2024/01/27 12:40:00;;;;;;;10.88;3.25;;;8.50;86.20;;;;;;5058919;28;20178;-59
2024/01/27 12:42:26;;;;;;;13.38;2.67;;;8.50;86.10;;;;;;5067263;28;20535;-59